Flight Track Log - Related Links

Times and Time Zones

All times are in EDT time to prevent confusion due to time zone crossing. See the N143DE flight status page for this flight to view local times or setup timezone preferences in your user account.


Time Position Orientation Groundspeed Altitude Reporting Facility
EDT Latitude Longitude Course Direction KTS MPH feet Rate Location/Type
Fri 06:30:02 PM 35.3500 -89.8833 158° South 151 174 900  Level Memphis TRACON
Fri 06:30:56 PM 35.3167 -89.8667 158° South 194 223 2,300 1,500 Climbing Memphis TRACON
Fri 06:31:50 PM 35.3000 -89.8000 107° East 215 247 3,600 1,421 Climbing Memphis TRACON
Fri 06:32:50 PM 35.2500 -89.7667 151° Southeast 204 235 5,000 1,429 Climbing Memphis TRACON
Fri 06:33:56 PM 35.2333 -89.7167 112° Southeast 188 216 6,600 1,111 Climbing Memphis TRACON
Fri 06:34:38 PM 35.2167 -89.6667 112° Southeast 193 222 7,000 294 Climbing Memphis TRACON
Fri 06:35:38 PM 35.2000 -89.5833 104° East 242 278 7,100 89 Climbing Memphis TRACON
Fri 06:36:53 PM 35.1961 -89.4958 93° East 249 287 7,200 356 Climbing Memphis Center
Fri 06:37:53 PM 35.1875 -89.4222 98° East 247 284 7,900 750 Climbing Memphis Center
Fri 06:38:53 PM 35.1806 -89.3486 97° East 231 266 8,700 750 Climbing Memphis Center
Fri 06:39:53 PM 35.1714 -89.2672 98° East 231 266 9,400 700 Climbing Memphis Center
Fri 06:40:53 PM 35.1561 -89.1939 104° East 231 266 10,100 700 Climbing Memphis Center
Fri 06:41:53 PM 35.1344 -89.1103 108° East 231 266 10,800 750 Climbing Memphis Center
Fri 06:42:53 PM 35.1214 -89.0369 102° East 226 260 11,600 750 Climbing Memphis Center
Fri 06:43:53 PM 35.1039 -88.9636 106° East 226 260 12,300 655 Climbing Memphis Center
Fri 06:44:52 PM 35.0883 -88.8903 105° East 221 254 12,900 700 Climbing Memphis Center
Fri 06:45:53 PM 35.0708 -88.8194 107° East 226 260 13,700 694 Climbing Memphis Center
Fri 06:46:53 PM 35.0553 -88.7489 105° East 221 254 14,300 605 Climbing Memphis Center
Fri 06:47:52 PM 35.0397 -88.6781 105° East 221 254 14,900 600 Climbing Memphis Center
Fri 06:48:53 PM 35.0219 -88.6050 107° East 221 254 15,500 595 Climbing Memphis Center
Fri 06:49:53 PM 35.0064 -88.5342 105° East 221 254 16,100 500 Climbing Memphis Center
Fri 06:50:53 PM 34.9908 -88.4764 108° East 221 254 16,500 450 Climbing Memphis Center
Fri 06:51:53 PM 34.9753 -88.4031 104° East 221 254 17,000 500 Climbing Memphis Center
Fri 06:52:53 PM 34.9572 -88.3275 106° East 221 254 17,500 500 Climbing Memphis Center
Fri 06:53:53 PM 34.9392 -88.2494 106° East 227 261 18,000 500 Climbing Memphis Center
Fri 06:54:53 PM 34.9214 -88.1714 106° East 227 261 18,500 550 Climbing Memphis Center
Fri 06:55:53 PM 34.9031 -88.0908 105° East 241 277 19,100 550 Climbing Memphis Center
Fri 06:56:53 PM 34.8828 -88.0028 106° East 241 277 19,600 500 Climbing Memphis Center
Fri 06:57:53 PM 34.8686 -87.9247 102° East 236 272 20,100 500 Climbing Memphis Center
Fri 06:58:53 PM 34.8442 -87.8419 110° East 241 277 20,600 500 Climbing Memphis Center
Fri 06:59:53 PM 34.8217 -87.7617 109° East 241 277 21,100 450 Climbing Memphis Center
Fri 07:00:53 PM 34.8094 -87.6836 101° East 242 278 21,500 450 Climbing Memphis Center
Fri 07:01:53 PM 34.7931 -87.6006 103° East 242 278 22,000 450 Climbing Memphis Center
Fri 07:02:53 PM 34.7664 -87.5308 115° Southeast 242 278 22,400 400 Climbing Memphis Center
Fri 07:03:53 PM 34.7456 -87.4406 106° East 241 277 22,800 300 Climbing Memphis Center
Fri 07:04:53 PM 34.7269 -87.3578 105° East 251 289 23,000 100 Climbing Memphis Center
Fri 07:05:53 PM 34.7083 -87.2800 106° East 256 295 23,000  Level Memphis Center
Fri 07:06:53 PM 34.6853 -87.1950 108° East 261 300 23,000  Level Memphis Center
Fri 07:07:53 PM 34.6664 -87.1100 105° East 261 300 23,000  Level Memphis Center
Fri 07:08:53 PM 34.6456 -87.0275 107° East 261 300 23,000  Level Memphis Center
Fri 07:09:53 PM 34.6242 -86.9350 106° East 266 306 23,000  Level Memphis Center
Fri 07:10:53 PM 34.6006 -86.8350 106° East 266 306 23,000  Level Memphis Center
Fri 07:11:53 PM 34.5772 -86.7500 108° East 266 306 23,000  Level Memphis Center
Fri 07:12:53 PM 34.5558 -86.6653 107° East 266 306 23,000  Level Memphis Center
Fri 07:13:53 PM 34.5344 -86.5781 107° East 266 306 23,000  Level Memphis Center
Fri 07:14:57 PM 34.5169 -86.4917 104° East 277 319 23,000  Level Atlanta Center
Fri 07:15:57 PM 34.4936 -86.4053 108° East 282 325 23,000  Level Atlanta Center
Fri 07:16:57 PM 34.4725 -86.3167 106° East 282 325 23,000  Level Atlanta Center
Fri 07:17:57 PM 34.4489 -86.2328 109° East 271 312 23,000  Level Atlanta Center
Fri 07:18:57 PM 34.4275 -86.1492 107° East 264 304 23,000 -500 Level Atlanta Center
Fri 07:19:57 PM 34.4081 -86.0606 105° East 264 304 22,000 -1,600 Descending Atlanta Center
Fri 07:20:57 PM 34.3822 -85.9769 111° Southeast 269 310 19,800 -2,000 Descending Atlanta Center
Fri 07:21:57 PM 34.3606 -85.8908 107° East 269 310 18,000 -1,550 Descending Atlanta Center
Fri 07:22:57 PM 34.3428 -85.8150 106° East 251 289 16,700 -1,200 Descending Atlanta Center
Fri 07:23:57 PM 34.3253 -85.7342 105° East 245 282 15,600 -1,500 Descending Atlanta Center
Fri 07:24:57 PM 34.3033 -85.6481 107° East 258 297 13,700 -1,800 Descending Atlanta Center
Fri 07:25:57 PM 34.2775 -85.5597 109° East 273 314 12,000 -1,600 Descending Atlanta Center
Fri 07:26:57 PM 34.2556 -85.4689 106° East 268 308 10,500 -1,500 Descending Atlanta Center
Fri 07:27:57 PM 34.2336 -85.3856 108° East 263 303 9,000 -1,250 Descending Atlanta Center
Fri 07:28:57 PM 34.2114 -85.3072 109° East 256 295 8,000 -550 Descending Atlanta Center
Fri 07:29:57 PM 34.1872 -85.2367 112° Southeast 237 273 7,900  Descending Atlanta Center
Fri 07:30:57 PM 34.1564 -85.1708 119° Southeast 222 255 8,000 -200 Climbing Atlanta Center
Fri 07:31:57 PM 34.1278 -85.1003 116° Southeast 222 255 7,500 -750 Descending Atlanta Center
Fri 07:32:57 PM 34.0969 -85.0347 120° Southeast 228 262 6,500 -950 Descending Atlanta Center
Fri 07:33:57 PM 34.0664 -84.9642 118° Southeast 228 262 5,600 -900 Descending Atlanta Center
Fri 07:34:57 PM 34.0375 -84.8986 118° Southeast 228 262 4,700 -950 Descending Atlanta Center
Fri 07:35:57 PM 34.0089 -84.8306 117° Southeast 228 262 3,700 -950 Descending Atlanta Center
Fri 07:36:57 PM 34.0092 -84.7656 90° East 217 250 2,800 -550 Descending Atlanta Center
Fri 07:37:57 PM 34.0117 -84.7028 87° East 200 230 2,600 -200 Descending Atlanta Center

Login

Don't have an account? Register now (free) for customized features, flight alerts, and more!